Parkdale, Oregon
Current Conditions -  °F | °C
As of 11:59 PM on Sunday 25 Jan 2015 (Local Time) from K4S2 Reporting Station
Moderate Fog Moderate Fog  
Wind Chill:   Ceiling: 100
Heat Index:   Visibility: 0.25mi
Dew Point:   Wind: 0mph
Humidity: 93%   Direction: NA
Pressure: 30.12"   Gusts: NA
Location:  45.3977°N, 121.59°W
Report Text: K4S2 260759Z AUTO 00000KT 1/4SM FG OVC001 06/05 A3012 RMK AO2 SLP209 T00600050
Loading
Personal Weather Stations






























Interactive Weather Map New forecast layout! Learn more

10-Day Weather Forecast

Advertisements
Track Severe Weather on mobile